Time;durP1;ratioP1;P1;durP2;ratioP2;P2;SDS_P1;SDS_P2;PMS_P1;PMS_P2;Temp;Humidity;BMP_temperature;BMP_pressure;BME280_temperature;BME280_humidity;BME280_pressure;Samples;Min_cycle;Max_cycle;Signal;HPM_P1;HPM_P2
2021/12/07 00:00:54;;;;;;;66.55;16.13;;;8.80;99.90;;;;;;4896499;29;20040;-66
2021/12/07 00:03:20;;;;;;;70.47;14.20;;;8.90;99.90;;;;;;4897076;29;20033;-66
2021/12/07 00:05:47;;;;;;;64.30;14.60;;;8.90;99.90;;;;;;4896026;29;20398;-66
2021/12/07 00:08:14;;;;;;;66.05;15.18;;;8.80;99.90;;;;;;4897643;29;20040;-66
2021/12/07 00:10:41;;;;;;;72.22;15.35;;;8.80;99.90;;;;;;4896310;29;20031;-66
2021/12/07 00:13:09;;;;;;;66.70;13.05;;;8.80;99.90;;;;;;4896296;29;20060;-66
2021/12/07 00:15:36;;;;;;;59.53;12.80;;;8.80;99.90;;;;;;4896720;29;20025;-66
2021/12/07 00:18:03;;;;;;;53.20;12.77;;;8.80;99.90;;;;;;4896171;29;20032;-65
2021/12/07 00:20:29;;;;;;;64.35;13.45;;;8.80;99.90;;;;;;4897437;29;20036;-66
2021/12/07 00:23:06;;;;;;;47.17;11.50;;;8.70;99.90;;;;;;4896745;29;20031;-66
2021/12/07 00:25:32;;;;;;;49.25;10.60;;;8.70;99.90;;;;;;4895902;29;20040;-66
2021/12/07 00:27:57;;;;;;;49.35;9.93;;;8.60;99.90;;;;;;4896209;29;20027;-66
2021/12/07 00:30:29;;;;;;;60.08;10.35;;;8.50;99.90;;;;;;4893326;29;20119;-66
2021/12/07 00:33:10;;;;;;;50.72;8.98;;;8.50;99.90;;;;;;4895839;29;20039;-66
2021/12/07 00:35:36;;;;;;;51.60;9.57;;;8.50;99.90;;;;;;4896014;29;20044;-66
2021/12/07 00:38:06;;;;;;;49.20;9.50;;;8.50;99.90;;;;;;4895611;29;20036;-66
2021/12/07 00:40:32;;;;;;;50.95;8.60;;;8.40;99.90;;;;;;4895528;29;20301;-66
2021/12/07 00:42:58;;;;;;;53.08;7.55;;;8.40;99.90;;;;;;4895885;29;20021;-66
2021/12/07 00:45:25;;;;;;;48.47;7.10;;;8.50;99.90;;;;;;4879108;29;20041;-66
2021/12/07 00:47:53;;;;;;;50.20;6.60;;;8.40;99.90;;;;;;4880420;29;20037;-66
2021/12/07 00:50:22;;;;;;;49.70;6.57;;;8.40;99.90;;;;;;4897087;29;20032;-66
2021/12/07 00:52:49;;;;;;;38.78;7.07;;;8.40;99.90;;;;;;4895732;29;20463;-66
2021/12/07 00:55:19;;;;;;;38.90;6.93;;;8.40;99.90;;;;;;4895782;29;20120;-66
2021/12/07 00:57:45;;;;;;;37.60;6.15;;;8.40;99.90;;;;;;4895526;29;20036;-66
2021/12/07 01:00:15;;;;;;;31.73;5.90;;;8.30;99.90;;;;;;4895649;29;20293;-66
2021/12/07 01:02:41;;;;;;;37.00;7.45;;;8.20;99.90;;;;;;4895743;29;20035;-66
2021/12/07 01:05:14;;;;;;;61.83;9.48;;;8.20;99.90;;;;;;4896534;29;20491;-66
2021/12/07 01:26:35;;;;;;;42.35;8.50;;;8.10;99.90;;;;;;4893280;29;19914;-66
2021/12/07 01:29:01;;;;;;;58.92;9.95;;;8.10;99.90;;;;;;4895437;29;20048;-66
2021/12/07 01:31:34;;;;;;;46.33;8.65;;;8.30;99.90;;;;;;4895054;29;20021;-66
2021/12/07 01:51:06;;;;;;;50.88;9.68;;;8.70;99.90;;;;;;4825867;29;20066;-66
2021/12/07 02:00:51;;;;;;;63.20;9.02;;;8.80;99.90;;;;;;4826902;29;20042;-66
2021/12/07 02:03:17;;;;;;;49.45;9.38;;;8.80;99.90;;;;;;4824326;29;20421;-66
2021/12/07 02:05:44;;;;;;;56.95;8.93;;;8.80;99.90;;;;;;4824446;29;20045;-66
2021/12/07 02:08:09;;;;;;;52.33;8.82;;;8.90;99.90;;;;;;4828043;29;20138;-66
2021/12/07 02:10:36;;;;;;;55.65;9.43;;;8.80;99.90;;;;;;4826258;29;20056;-66
2021/12/07 02:13:19;;;;;;;53.25;9.63;;;8.70;99.90;;;;;;4826475;29;20510;-66
2021/12/07 02:15:45;;;;;;;48.97;9.43;;;8.60;99.90;;;;;;4825633;29;20030;-66
2021/12/07 02:18:11;;;;;;;36.85;7.97;;;8.70;99.90;;;;;;4823875;29;20037;-66
2021/12/07 02:20:37;;;;;;;51.95;9.00;;;8.50;99.90;;;;;;4825015;29;20039;-66
2021/12/07 02:23:03;;;;;;;39.17;8.43;;;8.40;99.90;;;;;;4827254;29;20623;-67
2021/12/07 02:25:28;;;;;;;53.58;9.93;;;8.30;99.90;;;;;;4825943;29;20038;-68
2021/12/07 02:27:55;;;;;;;43.60;10.68;;;8.40;99.90;;;;;;4855488;29;20032;-66
2021/12/07 02:30:23;;;;;;;57.22;9.88;;;8.50;99.90;;;;;;4898112;29;20045;-66
2021/12/07 02:32:52;;;;;;;69.45;10.43;;;8.30;99.90;;;;;;4898062;29;20036;-67
2021/12/07 02:35:24;;;;;;;42.47;8.52;;;8.30;99.90;;;;;;4899703;29;20043;-66
2021/12/07 02:37:49;;;;;;;45.17;8.50;;;8.20;99.90;;;;;;4897828;29;20021;-66
2021/12/07 02:40:15;;;;;;;51.17;8.23;;;8.20;99.90;;;;;;4897920;29;20039;-66
2021/12/07 02:42:41;;;;;;;40.28;8.13;;;8.10;99.90;;;;;;4898013;29;20482;-66
2021/12/07 02:45:08;;;;;;;57.60;8.23;;;8.20;99.90;;;;;;4897378;29;20084;-66
2021/12/07 02:47:35;;;;;;;53.58;8.50;;;8.30;99.90;;;;;;4898659;29;20498;-66
2021/12/07 02:50:03;;;;;;;52.80;7.97;;;8.20;99.90;;;;;;4898503;29;20051;-66
2021/12/07 02:52:28;;;;;;;43.67;7.63;;;8.20;99.90;;;;;;4880975;29;20024;-66
2021/12/07 02:54:54;;;;;;;43.95;7.47;;;8.30;99.90;;;;;;4897931;29;20031;-66
2021/12/07 02:57:21;;;;;;;46.50;7.07;;;8.20;99.90;;;;;;4897859;29;20033;-66
2021/12/07 02:59:57;;;;;;;39.88;7.43;;;8.10;99.90;;;;;;4897318;29;20037;-66
2021/12/07 03:02:23;;;;;;;44.90;7.28;;;8.20;99.90;;;;;;4898153;29;20064;-66
2021/12/07 03:05:00;;;;;;;48.08;7.32;;;8.20;99.90;;;;;;4897856;29;20123;-66
2021/12/07 03:08:13;;;;;;;48.67;8.23;;;8.10;99.90;;;;;;4893400;29;20037;-66
2021/12/07 03:26:44;;;;;;;;;;;7.80;99.90;;;;;;4897670;29;20040;-66
2021/12/07 03:29:10;;;;;;;48.17;8.15;;;7.60;99.90;;;;;;4898134;29;19919;-66
2021/12/07 03:31:36;;;;;;;66.22;10.13;;;7.70;99.90;;;;;;4897365;29;20076;-66
2021/12/07 03:34:02;;;;;;;57.42;8.93;;;7.70;99.90;;;;;;4892956;29;20044;-66
2021/12/07 03:36:28;;;;;;;45.75;8.05;;;7.70;99.90;;;;;;4897106;29;20508;-66
2021/12/07 03:38:54;;;;;;;46.30;7.50;;;7.70;99.90;;;;;;4896877;29;20036;-66
2021/12/07 03:41:21;;;;;;;56.55;8.95;;;7.80;99.90;;;;;;4898534;29;20565;-66
2021/12/07 03:43:49;;;;;;;41.88;7.47;;;7.70;99.90;;;;;;4896431;29;20494;-66
2021/12/07 03:46:15;;;;;;;74.45;9.70;;;7.90;99.90;;;;;;4892565;29;20447;-66
2021/12/07 03:48:42;;;;;;;62.35;10.50;;;7.90;99.90;;;;;;4896740;29;20068;-66
2021/12/07 03:51:09;;;;;;;68.07;11.55;;;8.00;99.90;;;;;;4897113;29;20500;-66
2021/12/07 03:53:35;;;;;;;73.25;11.25;;;8.00;99.90;;;;;;4896896;29;20107;-66
2021/12/07 03:56:03;;;;;;;64.57;11.40;;;8.00;99.90;;;;;;4897342;29;20032;-66
2021/12/07 03:58:28;;;;;;;63.53;11.43;;;8.10;99.90;;;;;;4896611;29;20127;-66
2021/12/07 04:00:54;;;;;;;57.45;13.35;;;8.20;99.90;;;;;;4896567;29;20041;-66
2021/12/07 04:03:20;;;;;;;69.43;12.60;;;8.20;99.90;;;;;;4896541;29;20474;-66
2021/12/07 04:05:49;;;;;;;75.07;13.55;;;8.20;99.90;;;;;;4896460;29;20111;-66
2021/12/07 04:08:26;;;;;;;61.30;12.55;;;8.30;99.90;;;;;;4897825;29;20021;-66
2021/12/07 04:10:54;;;;;;;58.35;12.27;;;8.30;99.90;;;;;;4896853;29;20052;-68
2021/12/07 04:13:20;;;;;;;39.08;10.88;;;8.30;99.90;;;;;;4895273;29;20036;-66
2021/12/07 04:15:46;;;;;;;52.22;14.35;;;8.40;99.90;;;;;;4896180;29;20516;-66
2021/12/07 04:18:12;;;;;;;61.08;15.80;;;8.30;99.90;;;;;;4896151;29;20032;-66
2021/12/07 04:20:38;;;;;;;71.50;14.68;;;8.20;99.90;;;;;;4896796;29;20394;-66
2021/12/07 04:23:05;;;;;;;57.42;12.13;;;8.20;99.90;;;;;;4897114;29;20468;-66
2021/12/07 04:25:32;;;;;;;48.92;10.93;;;8.20;99.90;;;;;;4891965;29;20376;-66
2021/12/07 04:27:58;;;;;;;50.45;8.32;;;8.20;99.90;;;;;;4895691;29;20064;-66
2021/12/07 04:30:30;;;;;;;45.97;7.60;;;8.20;99.90;;;;;;4895978;29;20139;-66
2021/12/07 04:32:58;;;;;;;37.17;7.03;;;8.30;99.90;;;;;;4896139;29;20060;-66
2021/12/07 04:35:24;;;;;;;40.55;6.30;;;8.30;99.90;;;;;;4897728;29;20475;-66
2021/12/07 04:37:51;;;;;;;32.45;6.32;;;8.40;99.90;;;;;;4895749;29;20033;-66
2021/12/07 04:40:21;;;;;;;29.88;5.32;;;8.60;99.90;;;;;;4895961;29;20546;-66
2021/12/07 04:42:47;;;;;;;40.22;6.03;;;8.50;99.90;;;;;;4895583;29;20420;-66
2021/12/07 04:46:02;;;;;;;33.40;5.82;;;8.60;99.90;;;;;;4895986;29;20029;-66
2021/12/07 04:58:44;;;;;;;40.45;6.22;;;8.50;99.90;;;;;;4895903;29;19979;-66
2021/12/07 05:01:11;;;;;;;40.70;6.30;;;8.40;99.90;;;;;;4895891;29;20041;-66
2021/12/07 05:03:40;;;;;;;36.42;6.20;;;8.30;99.90;;;;;;4891395;29;20025;-66
2021/12/07 05:06:08;;;;;;;34.00;5.20;;;8.30;99.90;;;;;;4895614;29;20044;-66
2021/12/07 05:08:41;;;;;;;44.17;5.80;;;8.30;99.90;;;;;;4876396;29;20502;-66
2021/12/07 05:13:50;;;;;;;37.97;6.20;;;8.30;99.90;;;;;;4895299;29;20510;-66
2021/12/07 05:40:01;;;;;;;46.08;8.02;;;8.20;99.90;;;;;;4859249;29;20607;-66
2021/12/07 05:42:26;;;;;;;48.40;8.75;;;8.30;99.90;;;;;;4860064;29;20039;-66
2021/12/07 05:44:54;;;;;;;54.63;8.98;;;8.30;99.90;;;;;;4859509;29;20041;-66
2021/12/07 05:47:20;;;;;;;49.10;8.43;;;8.30;99.90;;;;;;4860602;29;20550;-66
2021/12/07 05:49:46;;;;;;;46.70;7.70;;;8.30;99.90;;;;;;4859396;29;20121;-66
2021/12/07 05:52:12;;;;;;;45.42;8.35;;;8.30;99.90;;;;;;4859307;29;20559;-66
2021/12/07 05:54:38;;;;;;;47.40;7.80;;;8.40;99.90;;;;;;4859116;29;20447;-66
2021/12/07 05:57:04;;;;;;;50.70;7.85;;;8.30;99.90;;;;;;4859662;29;20063;-66
2021/12/07 05:59:30;;;;;;;52.30;7.65;;;8.40;99.90;;;;;;4860820;29;20040;-66
2021/12/07 06:01:56;;;;;;;59.10;7.57;;;8.40;99.90;;;;;;4859672;29;20034;-65
2021/12/07 06:04:21;;;;;;;54.85;7.47;;;8.40;99.90;;;;;;4859154;29;20400;-66
2021/12/07 06:06:47;;;;;;;36.75;7.32;;;8.30;99.90;;;;;;4889411;29;20071;-66
2021/12/07 06:09:13;;;;;;;47.97;7.95;;;8.30;99.90;;;;;;4897996;29;20044;-66
2021/12/07 06:11:40;;;;;;;57.53;8.63;;;8.30;99.90;;;;;;4899210;29;20039;-65
2021/12/07 06:14:06;;;;;;;62.47;9.32;;;8.50;99.90;;;;;;4899409;29;20028;-66
2021/12/07 06:16:32;;;;;;;47.80;8.35;;;8.50;99.90;;;;;;4898347;29;20028;-65
2021/12/07 06:18:59;;;;;;;52.25;9.75;;;8.40;99.90;;;;;;4898389;29;20040;-66
2021/12/07 06:21:25;;;;;;;43.72;8.40;;;8.50;99.90;;;;;;4895841;29;20085;-66
2021/12/07 06:23:52;;;;;;;54.38;9.65;;;8.50;99.90;;;;;;4897072;29;20047;-66
2021/12/07 06:26:19;;;;;;;41.00;8.98;;;8.40;99.90;;;;;;4899695;29;20031;-66
2021/12/07 06:28:45;;;;;;;57.53;9.65;;;8.40;99.90;;;;;;4898478;29;20079;-66
2021/12/07 06:31:11;;;;;;;58.95;10.55;;;8.40;99.90;;;;;;4898210;29;20036;-66
2021/12/07 06:33:37;;;;;;;58.88;10.32;;;8.40;99.90;;;;;;4898052;29;20044;-66
2021/12/07 06:36:05;;;;;;;49.85;10.27;;;8.30;99.90;;;;;;4897614;29;20040;-65
2021/12/07 06:38:33;;;;;;;54.47;10.20;;;8.30;99.90;;;;;;4898792;29;20036;-67
2021/12/07 06:41:03;;;;;;;52.17;10.32;;;8.30;99.90;;;;;;4899132;29;20093;-67
2021/12/07 06:43:29;;;;;;;52.90;10.25;;;8.30;99.90;;;;;;4898106;29;20115;-66
2021/12/07 06:45:55;;;;;;;56.22;12.02;;;8.20;99.90;;;;;;4898154;29;20147;-65
2021/12/07 06:48:21;;;;;;;59.85;12.25;;;8.20;99.90;;;;;;4897855;29;20060;-66
2021/12/07 06:50:47;;;;;;;51.15;11.48;;;8.20;99.90;;;;;;4897844;29;20043;-66
2021/12/07 06:53:13;;;;;;;56.28;10.90;;;8.20;99.90;;;;;;4898907;29;20029;-67
2021/12/07 06:55:38;;;;;;;63.58;29.13;;;8.20;99.90;;;;;;4898266;29;20021;-66
2021/12/07 06:58:05;;;;;;;58.92;13.15;;;8.20;99.90;;;;;;4876804;29;20093;-66
2021/12/07 07:00:32;;;;;;;54.40;13.80;;;8.20;99.90;;;;;;4894311;29;20406;-66
2021/12/07 07:02:57;;;;;;;52.20;11.88;;;8.10;99.90;;;;;;4896211;29;20031;-66
2021/12/07 07:05:23;;;;;;;49.80;12.13;;;8.00;99.90;;;;;;4898948;29;20115;-67
2021/12/07 07:07:49;;;;;;;58.28;13.75;;;8.00;99.90;;;;;;4897427;29;20032;-66
2021/12/07 07:10:17;;;;;;;55.25;14.95;;;8.00;99.90;;;;;;4897522;29;20040;-66
2021/12/07 07:12:44;;;;;;;56.80;16.02;;;8.00;99.90;;;;;;4897378;29;20064;-66
2021/12/07 07:15:11;;;;;;;70.95;19.20;;;7.90;99.90;;;;;;4897456;29;20025;-66
2021/12/07 07:17:37;;;;;;;71.03;21.27;;;7.90;99.90;;;;;;4897807;29;20037;-66
2021/12/07 07:20:05;;;;;;;66.85;22.77;;;7.90;99.90;;;;;;4898117;29;20032;-66
2021/12/07 07:22:31;;;;;;;85.53;31.00;;;7.90;99.90;;;;;;4875942;29;20571;-66
2021/12/07 07:24:57;;;;;;;86.88;34.28;;;7.90;99.90;;;;;;4897723;29;20128;-67
2021/12/07 07:27:22;;;;;;;89.85;37.55;;;7.90;99.90;;;;;;4889850;29;20039;-66
2021/12/07 07:29:48;;;;;;;132.30;61.53;;;7.90;99.90;;;;;;4895499;29;20493;-66
2021/12/07 07:32:14;;;;;;;107.45;49.83;;;7.90;99.90;;;;;;4898401;29;20036;-66
2021/12/07 07:34:40;;;;;;;107.50;44.75;;;7.90;99.90;;;;;;4897377;29;20033;-66
2021/12/07 07:37:06;;;;;;;107.60;39.25;;;8.00;99.90;;;;;;4896550;29;20032;-66
2021/12/07 07:39:32;;;;;;;98.25;34.72;;;8.00;99.90;;;;;;4893283;29;20069;-66
2021/12/07 07:41:58;;;;;;;95.32;30.65;;;8.00;99.90;;;;;;4896817;29;20409;-66
2021/12/07 07:44:24;;;;;;;88.20;30.80;;;8.00;99.90;;;;;;4898364;29;20050;-67
2021/12/07 07:46:50;;;;;;;80.50;26.75;;;8.10;99.90;;;;;;4896839;29;20055;-66
2021/12/07 07:49:16;;;;;;;83.10;26.05;;;8.10;99.90;;;;;;4896141;29;20349;-66
2021/12/07 07:51:42;;;;;;;69.85;25.45;;;8.10;99.90;;;;;;4896691;29;20073;-66
2021/12/07 07:54:08;;;;;;;84.07;31.55;;;8.10;99.90;;;;;;4896825;29;20558;-66
2021/12/07 07:56:34;;;;;;;87.15;38.65;;;8.10;99.90;;;;;;4897038;29;20031;-66
2021/12/07 07:59:00;;;;;;;86.18;40.17;;;8.20;99.90;;;;;;4897459;29;20028;-66
2021/12/07 08:01:31;;;;;;;95.55;45.90;;;8.20;99.90;;;;;;4896520;29;20039;-66
2021/12/07 08:03:58;;;;;;;93.47;48.75;;;8.10;99.90;;;;;;4892171;29;20036;-66
2021/12/07 08:06:24;;;;;;;94.10;47.97;;;8.10;99.90;;;;;;4896537;29;20028;-65
2021/12/07 08:08:50;;;;;;;108.20;56.28;;;8.20;99.90;;;;;;4880451;29;20029;-66
2021/12/07 08:11:16;;;;;;;91.60;46.97;;;8.10;99.90;;;;;;4897726;29;20661;-65
2021/12/07 08:13:42;;;;;;;104.70;53.20;;;8.20;99.90;;;;;;4896325;29;20072;-66
2021/12/07 08:16:15;;;;;;;90.40;43.55;;;8.10;99.90;;;;;;4896160;29;20088;-65
2021/12/07 08:18:48;;;;;;;86.85;43.00;;;8.10;99.90;;;;;;4891709;29;20101;-66
2021/12/07 08:21:15;;;;;;;90.57;38.88;;;8.10;99.90;;;;;;4896074;29;20506;-66
2021/12/07 08:23:41;;;;;;;62.97;23.75;;;8.10;99.90;;;;;;4896617;29;20038;-66
2021/12/07 08:26:09;;;;;;;47.53;18.05;;;8.10;99.90;;;;;;4897562;29;20032;-66
2021/12/07 08:28:35;;;;;;;57.63;18.10;;;8.10;99.90;;;;;;4891738;29;20025;-66
2021/12/07 08:31:02;;;;;;;50.65;15.10;;;8.20;99.90;;;;;;4896053;29;20032;-66
2021/12/07 08:33:28;;;;;;;47.65;11.77;;;8.10;99.90;;;;;;4895682;29;20031;-66
2021/12/07 08:35:54;;;;;;;41.95;11.63;;;8.20;99.90;;;;;;4896183;29;20044;-66
2021/12/07 08:38:20;;;;;;;34.65;9.75;;;8.10;99.90;;;;;;4897210;29;20028;-66
2021/12/07 08:40:53;;;;;;;33.78;9.40;;;8.20;99.90;;;;;;4895739;29;20123;-66
2021/12/07 08:43:23;;;;;;;34.72;9.70;;;8.20;99.90;;;;;;4896218;29;20029;-66
2021/12/07 08:45:50;;;;;;;35.72;9.18;;;8.20;99.90;;;;;;4895521;29;20060;-66
2021/12/07 08:48:17;;;;;;;36.70;9.50;;;8.30;99.90;;;;;;4895621;29;20028;-66
2021/12/07 08:50:44;;;;;;;35.67;9.18;;;8.30;99.90;;;;;;4895712;29;20462;-66
2021/12/07 08:53:12;;;;;;;33.80;8.55;;;8.30;99.90;;;;;;4897196;29;20406;-65
2021/12/07 09:01:10;;;;;;;37.63;8.55;;;8.40;99.90;;;;;;4895305;29;20119;-66
2021/12/07 09:03:36;;;;;;;33.78;7.15;;;8.30;99.90;;;;;;4895544;29;20462;-66
2021/12/07 09:06:03;;;;;;;28.38;6.53;;;8.30;99.90;;;;;;4896366;29;20070;-66
2021/12/07 09:08:29;;;;;;;26.60;6.35;;;8.30;99.90;;;;;;4893502;29;20029;-66
2021/12/07 09:10:55;;;;;;;29.02;6.53;;;8.40;99.90;;;;;;4896488;29;20458;-66
2021/12/07 09:13:23;;;;;;;27.10;6.57;;;8.40;99.90;;;;;;4895756;29;20098;-66
2021/12/07 09:15:50;;;;;;;23.42;5.43;;;8.50;99.90;;;;;;4895725;29;20044;-65
2021/12/07 09:18:16;;;;;;;24.63;5.50;;;8.60;99.90;;;;;;4895658;29;20099;-65
2021/12/07 09:20:41;;;;;;;28.70;6.05;;;8.60;99.90;;;;;;4896645;29;20498;-66
2021/12/07 09:23:07;;;;;;;26.85;5.40;;;8.60;99.90;;;;;;4897003;29;20039;-66
2021/12/07 09:25:33;;;;;;;29.20;5.75;;;8.50;99.90;;;;;;4891635;29;20021;-66
2021/12/07 09:27:59;;;;;;;30.23;6.13;;;8.60;99.90;;;;;;4895875;29;20482;-65
2021/12/07 09:30:25;;;;;;;25.67;5.60;;;8.60;99.90;;;;;;4895547;29;20040;-67
2021/12/07 09:32:51;;;;;;;26.20;5.35;;;8.60;99.90;;;;;;4896087;29;20035;-66
2021/12/07 09:35:17;;;;;;;22.40;4.85;;;8.60;99.90;;;;;;4897250;29;20032;-66
2021/12/07 09:37:43;;;;;;;23.45;5.50;;;8.60;99.90;;;;;;4891971;29;20025;-66
2021/12/07 09:40:14;;;;;;;27.88;5.05;;;8.70;99.90;;;;;;4896459;29;20419;-66
2021/12/07 09:42:41;;;;;;;19.73;4.45;;;8.80;99.90;;;;;;4896574;29;20029;-66
2021/12/07 09:45:11;;;;;;;25.90;4.63;;;8.80;99.90;;;;;;4895796;29;20032;-66
2021/12/07 09:47:37;;;;;;;22.20;4.28;;;8.90;99.90;;;;;;4896583;29;20048;-66
2021/12/07 09:50:06;;;;;;;22.35;4.20;;;8.90;99.90;;;;;;4897524;29;20075;-66
2021/12/07 09:52:32;;;;;;;22.08;4.53;;;9.00;99.90;;;;;;4896187;29;20032;-66
2021/12/07 09:54:58;;;;;;;23.00;4.65;;;9.10;99.90;;;;;;4891534;29;20032;-65
2021/12/07 09:57:24;;;;;;;22.65;4.18;;;9.10;99.90;;;;;;4895636;29;20147;-65
2021/12/07 09:59:50;;;;;;;21.33;4.68;;;9.20;99.90;;;;;;4879070;29;20029;-66
2021/12/07 10:02:16;;;;;;;23.83;4.40;;;9.20;99.90;;;;;;4893280;29;20028;-66
2021/12/07 10:04:42;;;;;;;22.83;4.63;;;9.30;99.90;;;;;;4891888;29;20025;-66
2021/12/07 10:07:08;;;;;;;24.58;4.88;;;9.30;99.90;;;;;;4895690;29;20088;-66
2021/12/07 10:09:36;;;;;;;22.20;4.65;;;9.40;99.90;;;;;;4896058;29;20043;-66
2021/12/07 10:12:03;;;;;;;20.92;4.68;;;9.50;99.90;;;;;;4883411;29;20036;-65
2021/12/07 10:14:41;;;;;;;18.80;3.83;;;9.50;99.90;;;;;;4895949;29;20025;-66
2021/12/07 10:17:07;;;;;;;18.98;4.47;;;9.60;99.90;;;;;;4899575;29;20075;-66
2021/12/07 10:19:35;;;;;;;18.80;3.95;;;9.60;99.90;;;;;;4898735;29;20052;-66
2021/12/07 10:22:10;;;;;;;14.40;3.53;;;9.70;99.90;;;;;;4898878;29;20033;-65
2021/12/07 10:24:47;;;;;;;19.48;3.88;;;9.80;99.90;;;;;;4898287;29;20502;-66
2021/12/07 10:27:31;;;;;;;14.40;3.22;;;9.80;99.90;;;;;;4898580;29;20399;-66
2021/12/07 10:29:57;;;;;;;14.73;3.60;;;9.80;99.90;;;;;;4898880;29;20047;-66
2021/12/07 10:32:22;;;;;;;16.45;3.33;;;9.80;99.90;;;;;;4899782;29;20277;-66
2021/12/07 10:34:48;;;;;;;20.55;4.28;;;9.80;99.90;;;;;;4894139;29;20040;-66
2021/12/07 10:37:17;;;;;;;17.02;3.17;;;9.80;99.90;;;;;;4898477;29;20501;-66
2021/12/07 10:39:46;;;;;;;22.45;3.95;;;9.80;99.90;;;;;;4894408;29;20376;-66
2021/12/07 10:42:22;;;;;;;18.65;3.53;;;9.80;99.90;;;;;;4897726;29;20024;-66
2021/12/07 10:44:48;;;;;;;17.85;3.55;;;9.80;99.90;;;;;;4897393;29;20309;-66
2021/12/07 10:47:15;;;;;;;18.77;3.30;;;9.90;99.90;;;;;;4899477;29;20041;-66
2021/12/07 10:49:44;;;;;;;17.38;3.88;;;9.80;99.90;;;;;;4898420;29;20052;-65
2021/12/07 10:52:39;;;;;;;19.02;4.25;;;9.90;99.90;;;;;;4898175;29;20031;-67
2021/12/07 10:55:10;;;;;;;18.63;4.97;;;9.90;99.90;;;;;;4892975;29;20095;-68
2021/12/07 10:57:44;;;;;;;18.33;4.72;;;9.90;99.90;;;;;;4897860;29;20024;-67
2021/12/07 11:00:10;;;;;;;;;;;9.90;99.90;;;;;;4881683;29;20079;-67
2021/12/07 11:02:38;;;;;;;14.43;3.53;;;9.90;99.90;;;;;;4898000;29;20401;-69
2021/12/07 11:05:08;;;;;;;16.25;3.28;;;9.90;99.90;;;;;;4894147;29;20514;-69
2021/12/07 11:07:34;;;;;;;15.05;3.45;;;9.90;99.90;;;;;;4897642;29;20603;-68
2021/12/07 11:10:22;;;;;;;14.93;3.20;;;9.90;99.90;;;;;;4897704;29;20041;-67
2021/12/07 11:13:04;;;;;;;17.45;3.60;;;9.90;99.90;;;;;;4897287;29;20056;-67
2021/12/07 11:15:36;;;;;;;12.32;3.13;;;9.90;99.90;;;;;;4897850;29;20036;-68
2021/12/07 11:18:06;;;;;;;13.43;2.83;;;9.80;99.90;;;;;;4897829;29;20032;-68
2021/12/07 11:20:32;;;;;;;10.63;3.00;;;9.80;99.90;;;;;;4895041;29;20405;-68
2021/12/07 11:23:03;;;;;;;19.00;3.70;;;9.70;99.90;;;;;;4892823;29;20068;-68
2021/12/07 11:31:31;;;;;;;18.55;4.32;;;9.70;99.90;;;;;;4857374;29;20081;-68
2021/12/07 11:34:11;;;;;;;11.30;3.10;;;9.70;99.90;;;;;;4857221;29;20052;-67
2021/12/07 11:36:56;;;;;;;13.23;3.30;;;9.60;99.90;;;;;;4857354;29;20029;-66
2021/12/07 11:39:30;;;;;;;15.45;3.70;;;9.60;99.90;;;;;;4857798;29;20069;-66
2021/12/07 11:42:03;;;;;;;19.48;4.10;;;9.70;99.90;;;;;;4857356;29;20033;-66
2021/12/07 11:44:31;;;;;;;12.10;3.47;;;9.70;99.90;;;;;;4858916;29;20041;-67
2021/12/07 11:46:58;;;;;;;15.00;3.25;;;9.70;99.90;;;;;;4857380;29;20054;-65
2021/12/07 11:49:27;;;;;;;14.20;3.85;;;9.70;99.90;;;;;;4857415;29;20116;-65
2021/12/07 11:51:55;;;;;;;17.38;3.45;;;9.70;99.90;;;;;;4856979;29;20045;-65
2021/12/07 11:54:25;;;;;;;15.35;4.50;;;9.70;99.90;;;;;;4857847;29;20034;-65
2021/12/07 11:56:51;;;;;;;13.00;3.45;;;9.60;99.90;;;;;;4857221;29;20499;-66
2021/12/07 11:59:17;;;;;;;14.48;3.70;;;9.70;99.90;;;;;;4858095;29;20515;-66
2021/12/07 12:01:46;;;;;;;13.13;4.25;;;9.70;99.90;;;;;;4857464;29;20455;-65
2021/12/07 12:04:14;;;;;;;13.50;3.92;;;9.70;99.90;;;;;;4858275;29;20452;-65
2021/12/07 12:06:42;;;;;;;13.65;3.88;;;9.70;99.90;;;;;;4885845;29;20032;-66
2021/12/07 12:09:08;;;;;;;15.30;4.18;;;9.70;99.90;;;;;;4896491;29;20509;-65
2021/12/07 12:11:39;;;;;;;13.75;4.35;;;9.80;99.90;;;;;;4897085;29;20514;-66
2021/12/07 12:14:31;;;;;;;13.85;4.32;;;9.80;99.90;;;;;;4897005;29;20559;-65
2021/12/07 12:17:05;;;;;;;18.30;4.93;;;9.80;99.90;;;;;;4896482;29;20032;-66
2021/12/07 12:20:00;;;;;;;13.73;4.60;;;9.90;99.90;;;;;;4896143;29;20051;-64
2021/12/07 12:23:23;;;;;;;12.15;4.32;;;9.90;99.90;;;;;;4895424;29;20509;-64
2021/12/07 12:25:59;;;;;;;26.08;9.65;;;9.90;99.90;;;;;;4823844;29;20038;-66
2021/12/07 12:28:32;;;;;;;14.05;4.70;;;9.90;99.90;;;;;;4824336;29;20034;-65
2021/12/07 12:30:58;;;;;;;23.40;8.93;;;10.00;99.90;;;;;;4824301;29;20042;-65
2021/12/07 12:33:23;;;;;;;18.38;5.93;;;10.00;99.90;;;;;;4822598;29;20110;-66
2021/12/07 12:35:52;;;;;;;14.88;4.88;;;9.90;99.90;;;;;;4821144;29;20030;-65
2021/12/07 12:38:25;;;;;;;15.43;4.85;;;10.00;99.90;;;;;;4825283;29;20026;-65
2021/12/07 12:41:02;;;;;;;14.13;5.13;;;10.00;99.90;;;;;;4824020;29;20046;-66
2021/12/07 12:43:41;;;;;;;15.23;4.93;;;10.00;99.90;;;;;;4824446;29;20527;-66
2021/12/07 12:46:09;;;;;;;15.27;5.13;;;10.10;99.90;;;;;;4823884;29;20115;-66
2021/12/07 12:48:36;;;;;;;19.30;5.30;;;10.10;99.90;;;;;;4823856;29;20070;-65
2021/12/07 12:51:04;;;;;;;17.95;4.93;;;10.00;99.90;;;;;;4820135;29;20509;-66
2021/12/07 12:53:34;;;;;;;21.63;6.35;;;10.00;99.90;;;;;;4835565;29;20114;-66
2021/12/07 12:56:07;;;;;;;19.58;5.68;;;10.00;99.90;;;;;;4824158;29;20034;-64
2021/12/07 12:58:37;;;;;;;18.60;5.90;;;10.20;99.90;;;;;;4831309;29;20054;-66
2021/12/07 13:01:29;;;;;;;14.75;5.75;;;10.20;99.90;;;;;;4888729;29;20280;-65
2021/12/07 13:04:06;;;;;;;16.20;5.75;;;10.30;99.90;;;;;;4895193;29;20525;-65
2021/12/07 13:06:32;;;;;;;13.93;5.53;;;10.30;99.90;;;;;;4895508;29;20422;-66
2021/12/07 13:09:06;;;;;;;12.85;5.60;;;10.40;99.90;;;;;;4895628;29;20062;-65
2021/12/07 13:11:49;;;;;;;13.48;5.90;;;10.40;99.90;;;;;;4893019;29;20088;-66
2021/12/07 13:14:24;;;;;;;14.07;5.75;;;10.50;99.90;;;;;;4894908;29;20025;-65
2021/12/07 13:16:59;;;;;;;16.13;6.18;;;10.40;99.90;;;;;;4891503;29;20048;-65
2021/12/07 13:19:25;;;;;;;20.98;6.32;;;10.30;99.90;;;;;;4891661;29;20482;-65
2021/12/07 13:21:51;;;;;;;15.13;6.28;;;10.30;99.90;;;;;;4891419;29;20044;-66
2021/12/07 13:24:30;;;;;;;15.32;6.40;;;10.20;99.90;;;;;;4895190;29;20028;-65
2021/12/07 13:26:57;;;;;;;16.13;6.53;;;10.20;99.90;;;;;;4895532;29;20406;-65
2021/12/07 13:29:25;;;;;;;17.55;7.43;;;10.30;99.90;;;;;;4896896;29;20517;-65
2021/12/07 13:31:56;;;;;;;16.75;6.10;;;10.30;99.90;;;;;;4891189;29;20129;-66
2021/12/07 13:34:31;;;;;;;21.05;7.47;;;10.30;99.90;;;;;;4895042;29;20035;-66
2021/12/07 13:37:02;;;;;;;17.67;6.82;;;10.20;99.90;;;;;;4895204;29;20529;-66
2021/12/07 13:39:31;;;;;;;16.50;6.78;;;10.30;99.90;;;;;;4895026;29;20085;-66
2021/12/07 13:42:02;;;;;;;15.82;5.88;;;10.30;99.90;;;;;;4895299;29;20033;-66
2021/12/07 13:44:35;;;;;;;14.40;6.05;;;10.30;99.90;;;;;;4896786;29;20037;-66
2021/12/07 13:47:23;;;;;;;12.57;5.15;;;10.30;99.90;;;;;;4898023;29;20136;-66
2021/12/07 13:50:02;;;;;;;12.45;5.22;;;10.30;99.90;;;;;;4898792;29;20049;-66
2021/12/07 13:52:31;;;;;;;11.55;5.00;;;10.40;99.90;;;;;;4898355;29;20023;-66
2021/12/07 13:55:00;;;;;;;11.43;4.90;;;10.40;99.90;;;;;;4894805;29;20414;-66
2021/12/07 13:57:34;;;;;;;14.25;4.93;;;10.50;99.90;;;;;;4899360;29;20085;-66
2021/12/07 14:00:16;;;;;;;12.55;4.40;;;10.40;99.90;;;;;;4898876;29;20039;-65
2021/12/07 14:02:45;;;;;;;9.65;4.18;;;10.50;99.90;;;;;;4896235;29;20028;-66
2021/12/07 14:05:18;;;;;;;12.20;4.22;;;10.50;99.90;;;;;;4899615;29;20029;-65
2021/12/07 14:07:46;;;;;;;11.13;4.70;;;10.40;99.90;;;;;;4898271;29;20451;-66
2021/12/07 14:10:24;;;;;;;10.90;4.45;;;10.40;99.90;;;;;;4894765;29;20406;-65
2021/12/07 14:12:53;;;;;;;10.68;4.75;;;10.40;99.90;;;;;;4899251;29;20063;-66
2021/12/07 14:15:21;;;;;;;10.32;4.30;;;10.50;99.90;;;;;;4899149;29;20112;-65
2021/12/07 14:17:59;;;;;;;11.52;4.90;;;10.60;99.90;;;;;;4899350;29;20028;-66
2021/12/07 14:20:35;;;;;;;11.60;5.10;;;10.60;99.90;;;;;;4886328;29;20089;-66
2021/12/07 14:23:13;;;;;;;12.43;4.32;;;10.60;99.90;;;;;;4899339;29;20112;-66
2021/12/07 14:25:51;;;;;;;11.57;4.70;;;10.60;99.90;;;;;;4894635;29;20040;-65
2021/12/07 14:28:45;;;;;;;10.02;4.72;;;10.60;99.90;;;;;;4899370;29;20021;-65
2021/12/07 14:31:22;;;;;;;13.32;4.68;;;10.60;99.90;;;;;;4898914;29;20116;-65
2021/12/07 14:33:55;;;;;;;11.70;5.35;;;10.70;99.90;;;;;;4894826;29;20129;-65
2021/12/07 14:36:53;;;;;;;11.55;4.45;;;10.60;99.90;;;;;;4898581;29;20032;-65
2021/12/07 14:39:31;;;;;;;9.25;4.28;;;10.70;99.90;;;;;;4880243;29;20032;-66
2021/12/07 14:41:58;;;;;;;13.18;5.97;;;10.70;99.90;;;;;;4899047;29;20088;-65